createdAt,value
2023-02-13T00:00:02.319Z,63.80
2023-02-13T00:02:29.011Z,63.10
2023-02-13T00:04:55.645Z,66.10
2023-02-13T00:07:22.250Z,66.30
2023-02-13T00:09:48.927Z,66.00
2023-02-13T00:12:15.550Z,65.70
2023-02-13T00:14:42.186Z,62.70
2023-02-13T00:17:08.935Z,62.50
2023-02-13T00:19:35.600Z,64.80
2023-02-13T00:22:02.297Z,63.90
2023-02-13T00:24:28.943Z,62.20
2023-02-13T00:26:55.605Z,63.70
2023-02-13T00:29:22.271Z,64.30
2023-02-13T00:31:49.009Z,64.50
2023-02-13T00:34:15.736Z,62.60
2023-02-13T00:36:42.450Z,63.50
2023-02-13T00:39:11.547Z,64.40
2023-02-13T00:41:39.118Z,66.30
2023-02-13T00:44:05.853Z,65.30
2023-02-13T00:46:32.625Z,65.70
2023-02-13T00:48:59.319Z,66.10
2023-02-13T00:51:25.983Z,65.80
2023-02-13T00:53:52.646Z,63.20
2023-02-13T00:56:19.272Z,66.20
2023-02-13T00:58:46.277Z,64.50
2023-02-13T01:01:12.982Z,65.20
2023-02-13T01:03:40.058Z,67.90
2023-02-13T01:06:07.502Z,66.90
2023-02-13T01:08:34.630Z,66.00
2023-02-13T01:11:01.346Z,70.30
2023-02-13T01:13:27.983Z,70.30
2023-02-13T01:15:54.817Z,66.50
2023-02-13T01:18:21.498Z,69.30
2023-02-13T01:21:01.041Z,68.60
2023-02-13T01:23:34.994Z,67.30
2023-02-13T01:26:04.307Z,69.60
2023-02-13T01:28:31.024Z,70.50
2023-02-13T01:30:58.764Z,68.20
2023-02-13T01:33:27.802Z,72.40
2023-02-13T01:35:54.870Z,68.70
2023-02-13T01:38:21.707Z,69.00
2023-02-13T01:40:52.803Z,72.70
2023-02-13T01:43:23.334Z,71.50
2023-02-13T01:45:53.680Z,72.60
2023-02-13T01:48:24.078Z,74.30
2023-02-13T01:51:14.774Z,74.20
2023-02-13T01:53:50.362Z,72.10
2023-02-13T01:56:38.823Z,72.40
2023-02-13T01:59:08.952Z,71.00
2023-02-13T02:01:36.818Z,73.50
2023-02-13T02:04:23.055Z,75.30
2023-02-13T02:06:55.675Z,74.20
2023-02-13T02:09:26.035Z,71.90
2023-02-13T02:11:59.362Z,69.70
2023-02-13T02:14:27.493Z,71.10
2023-02-13T02:16:54.279Z,72.70
2023-02-13T02:19:36.989Z,69.40
2023-02-13T02:22:09.519Z,70.20
2023-02-13T02:25:06.951Z,72.40
2023-02-13T02:27:41.541Z,72.70
2023-02-13T02:30:17.396Z,71.20
2023-02-13T02:33:01.813Z,71.10
2023-02-13T02:35:37.305Z,74.00
2023-02-13T02:38:40.137Z,76.40
2023-02-13T02:41:33.707Z,72.10
2023-02-13T02:44:09.147Z,71.80
2023-02-13T02:47:17.272Z,70.40
2023-02-13T02:50:01.944Z,71.60
2023-02-13T02:52:43.671Z,73.80
2023-02-13T02:55:26.404Z,72.80
2023-02-13T02:58:21.285Z,72.30
2023-02-13T03:01:08.091Z,69.80
2023-02-13T03:03:54.104Z,69.90
2023-02-13T03:06:28.128Z,75.40
2023-02-13T03:09:17.395Z,74.00
2023-02-13T03:12:09.971Z,70.70
2023-02-13T03:14:37.505Z,72.70
2023-02-13T03:17:24.106Z,73.30
2023-02-13T03:20:18.572Z,73.90
2023-02-13T03:23:07.296Z,71.00
2023-02-13T03:25:39.185Z,72.00
2023-02-13T03:28:47.294Z,72.20
2023-02-13T03:31:32.717Z,71.70
2023-02-13T03:34:06.461Z,74.70
2023-02-13T03:37:07.717Z,74.70
2023-02-13T03:39:43.311Z,73.70
2023-02-13T03:42:19.616Z,76.60
2023-02-13T03:45:19.789Z,75.70
2023-02-13T03:47:47.744Z,78.10
2023-02-13T03:50:15.262Z,76.70
2023-02-13T03:52:51.406Z,74.10
2023-02-13T03:56:00.926Z,75.00
2023-02-13T03:58:49.974Z,77.20
2023-02-13T04:01:19.283Z,77.40
2023-02-13T04:03:51.091Z,80.60
2023-02-13T04:06:24.883Z,81.60
2023-02-13T04:08:51.557Z,81.00
2023-02-13T04:11:24.135Z,80.00
2023-02-13T04:13:57.024Z,82.80
2023-02-13T04:16:40.155Z,81.90
2023-02-13T04:19:08.149Z,82.70
2023-02-13T04:21:35.780Z,80.60
2023-02-13T04:24:02.800Z,80.20
2023-02-13T04:26:43.090Z,82.00
2023-02-13T04:29:10.257Z,82.70
2023-02-13T04:31:37.126Z,84.30
2023-02-13T04:34:03.866Z,84.50
2023-02-13T04:36:30.790Z,85.70
2023-02-13T04:38:57.597Z,83.80
2023-02-13T04:41:24.383Z,84.20
2023-02-13T04:43:52.427Z,86.20
2023-02-13T04:46:19.211Z,84.90
2023-02-13T04:48:45.999Z,87.20
2023-02-13T04:51:12.820Z,85.80
2023-02-13T04:53:39.495Z,84.90
2023-02-13T04:56:06.352Z,83.00
2023-02-13T04:58:33.117Z,84.50
2023-02-13T05:01:00.101Z,85.60
2023-02-13T05:03:26.876Z,85.30
2023-02-13T05:05:53.562Z,86.60
2023-02-13T05:08:20.364Z,88.80
2023-02-13T05:10:47.221Z,88.10
2023-02-13T05:13:14.018Z,87.60
2023-02-13T05:15:40.696Z,87.60
2023-02-13T05:18:07.387Z,89.70
2023-02-13T05:20:34.078Z,89.70
2023-02-13T05:23:19.253Z,90.30
2023-02-13T05:25:45.879Z,90.60
2023-02-13T05:28:31.030Z,90.00
2023-02-13T05:30:58.147Z,90.20
2023-02-13T05:33:25.546Z,90.80
2023-02-13T05:35:52.169Z,91.30
2023-02-13T05:38:18.949Z,90.90
2023-02-13T05:40:45.728Z,91.10
2023-02-13T05:43:12.398Z,90.90
2023-02-13T05:45:39.006Z,90.70
2023-02-13T05:48:05.760Z,90.80
2023-02-13T05:50:32.380Z,91.30
2023-02-13T05:52:59.213Z,91.40
2023-02-13T05:55:25.866Z,91.30
2023-02-13T05:57:57.414Z,90.20
2023-02-13T06:00:24.536Z,90.30
2023-02-13T06:02:51.294Z,91.40
2023-02-13T06:05:17.998Z,90.10
2023-02-13T06:07:44.657Z,90.90
2023-02-13T06:10:11.595Z,91.20
2023-02-13T06:12:38.228Z,91.40
2023-02-13T06:15:05.624Z,90.50
2023-02-13T06:17:32.225Z,90.70
2023-02-13T06:19:58.844Z,90.90
2023-02-13T06:22:25.465Z,91.20
2023-02-13T06:24:52.166Z,91.30
2023-02-13T06:27:18.772Z,91.40
2023-02-13T06:29:45.655Z,91.50
2023-02-13T06:32:12.307Z,91.80
2023-02-13T06:34:39.137Z,92.20
2023-02-13T06:37:05.784Z,92.00
2023-02-13T06:39:32.559Z,92.10
2023-02-13T06:41:59.253Z,92.20
2023-02-13T06:44:25.901Z,92.30
2023-02-13T06:46:52.650Z,92.70
2023-02-13T06:49:19.580Z,92.30
2023-02-13T06:51:46.246Z,91.60
2023-02-13T06:54:12.902Z,91.50
2023-02-13T06:56:39.589Z,91.30
2023-02-13T06:59:06.344Z,91.70
2023-02-13T07:01:33.012Z,91.90
2023-02-13T07:03:59.798Z,92.20
2023-02-13T07:06:26.602Z,91.70
2023-02-13T07:08:55.864Z,92.00
2023-02-13T07:11:24.850Z,91.00
2023-02-13T07:13:51.500Z,92.00
2023-02-13T07:16:18.474Z,91.80
2023-02-13T07:18:45.278Z,92.60
2023-02-13T07:21:12.393Z,91.40
2023-02-13T07:23:39.152Z,92.00
2023-02-13T07:26:05.825Z,92.60
2023-02-13T07:28:32.785Z,92.50
2023-02-13T07:31:04.867Z,91.90
2023-02-13T07:33:32.914Z,92.10
2023-02-13T07:36:00.057Z,92.50
2023-02-13T07:38:26.744Z,92.40
2023-02-13T07:40:53.398Z,92.60
2023-02-13T07:43:20.120Z,92.60
2023-02-13T07:45:47.031Z,92.50
2023-02-13T07:48:13.937Z,93.20
2023-02-13T07:50:40.658Z,93.60
2023-02-13T07:53:07.877Z,94.00
2023-02-13T07:55:34.497Z,93.80
2023-02-13T07:58:01.814Z,94.50
2023-02-13T08:00:28.755Z,94.90
2023-02-13T08:02:55.402Z,94.00
2023-02-13T08:05:22.100Z,94.20
2023-02-13T08:07:48.906Z,94.50
2023-02-13T08:10:34.883Z,94.10
2023-02-13T08:13:01.534Z,94.90
2023-02-13T08:15:28.368Z,95.20
2023-02-13T08:17:55.092Z,95.30
2023-02-13T08:20:21.735Z,94.60
2023-02-13T08:22:48.385Z,94.30
2023-02-13T08:25:15.100Z,93.40
2023-02-13T08:27:41.819Z,93.80
2023-02-13T08:30:10.016Z,93.20
2023-02-13T08:32:52.844Z,93.50
2023-02-13T08:35:20.550Z,94.90
2023-02-13T08:37:47.716Z,96.40
2023-02-13T08:40:14.835Z,98.10
2023-02-13T08:42:41.639Z,99.90
2023-02-13T08:45:10.496Z,99.90
2023-02-13T08:47:40.525Z,99.90
2023-02-13T08:50:07.769Z,99.90
2023-02-13T08:52:34.608Z,99.90
2023-02-13T08:55:03.419Z,99.90
2023-02-13T08:57:31.111Z,99.90
2023-02-13T08:59:57.740Z,99.90
2023-02-13T09:02:24.540Z,99.90
2023-02-13T09:04:51.304Z,99.90
2023-02-13T09:07:17.973Z,99.90
2023-02-13T09:09:44.670Z,99.90
2023-02-13T09:12:11.341Z,99.90
2023-02-13T09:14:39.234Z,99.90
2023-02-13T09:17:06.161Z,99.90
2023-02-13T09:19:32.810Z,99.90
2023-02-13T09:21:59.587Z,99.90
2023-02-13T09:24:26.501Z,99.90
2023-02-13T09:26:53.126Z,99.90
2023-02-13T09:29:19.933Z,99.90
2023-02-13T09:31:46.825Z,99.90
2023-02-13T09:34:13.908Z,99.90
2023-02-13T09:36:40.556Z,99.90
2023-02-13T09:39:07.234Z,99.90
2023-02-13T09:41:37.227Z,99.90
2023-02-13T09:44:33.920Z,99.90
2023-02-13T09:47:08.137Z,99.90
2023-02-13T09:49:39.085Z,99.90
2023-02-13T09:52:05.904Z,99.90
2023-02-13T09:54:32.637Z,99.90
2023-02-13T09:57:08.172Z,99.90
2023-02-13T09:59:43.673Z,99.90
2023-02-13T10:02:44.473Z,99.90
2023-02-13T10:05:27.188Z,99.90
2023-02-13T10:08:09.795Z,99.90
2023-02-13T10:10:51.517Z,99.90
2023-02-13T10:14:06.448Z,99.90
2023-02-13T10:16:40.800Z,99.90
2023-02-13T10:19:33.393Z,99.90
2023-02-13T10:22:31.178Z,99.90
2023-02-13T10:25:03.435Z,99.90
2023-02-13T10:27:36.264Z,99.90
2023-02-13T10:30:09.298Z,99.90
2023-02-13T10:33:18.702Z,99.90
2023-02-13T10:36:10.145Z,99.90
2023-02-13T10:39:05.372Z,99.90
2023-02-13T10:42:13.507Z,99.90
2023-02-13T10:44:58.322Z,99.90
2023-02-13T10:47:44.157Z,99.90
2023-02-13T10:50:13.682Z,99.90
2023-02-13T10:52:57.689Z,99.90
2023-02-13T10:56:21.600Z,99.90
2023-02-13T10:58:50.990Z,99.90
2023-02-13T11:01:47.788Z,99.90
2023-02-13T11:04:17.891Z,99.90
2023-02-13T11:06:51.235Z,99.90
2023-02-13T11:09:17.943Z,99.90
2023-02-13T11:11:44.948Z,99.90
2023-02-13T11:14:14.781Z,99.90
2023-02-13T11:16:52.079Z,99.90
2023-02-13T11:19:39.562Z,99.90
2023-02-13T11:22:13.552Z,99.90
2023-02-13T11:24:52.150Z,99.90
2023-02-13T11:27:24.722Z,99.90
2023-02-13T11:29:57.072Z,99.90
2023-02-13T11:32:34.371Z,99.90
2023-02-13T11:35:30.922Z,99.90
2023-02-13T11:38:15.814Z,99.90
2023-02-13T11:40:52.037Z,99.90
2023-02-13T11:43:23.758Z,99.90
2023-02-13T11:46:07.740Z,99.90
2023-02-13T11:48:34.874Z,99.90
2023-02-13T11:51:01.683Z,99.90
2023-02-13T11:53:32.018Z,99.90
2023-02-13T11:56:10.794Z,99.90
2023-02-13T11:58:37.736Z,99.90
2023-02-13T12:01:10.632Z,99.90
2023-02-13T12:03:38.874Z,99.90
2023-02-13T12:06:15.623Z,99.90
2023-02-13T12:08:46.473Z,99.90
2023-02-13T12:11:35.719Z,99.90
2023-02-13T12:14:02.534Z,99.90
2023-02-13T12:16:41.263Z,99.90
2023-02-13T12:19:13.008Z,99.90
2023-02-13T12:21:45.433Z,99.90
2023-02-13T12:24:55.423Z,99.90
2023-02-13T12:27:45.958Z,99.90
2023-02-13T12:30:15.990Z,99.90
2023-02-13T12:32:55.665Z,99.90
2023-02-13T12:35:46.536Z,99.90
2023-02-13T12:38:22.177Z,99.90
2023-02-13T12:41:27.235Z,99.90
2023-02-13T12:44:06.035Z,99.90
2023-02-13T12:46:52.646Z,99.90
2023-02-13T12:49:53.934Z,99.90
2023-02-13T12:52:44.705Z,99.90
2023-02-13T12:55:35.456Z,99.90
2023-02-13T12:58:02.033Z,99.90
2023-02-13T13:00:49.078Z,99.90
2023-02-13T13:03:31.279Z,99.90
2023-02-13T13:06:35.657Z,99.90
2023-02-13T13:09:21.278Z,99.90
2023-02-13T13:12:01.885Z,99.90
2023-02-13T13:14:45.469Z,99.90
2023-02-13T13:17:39.482Z,99.90
2023-02-13T13:20:37.019Z,99.90
2023-02-13T13:23:18.033Z,99.90
2023-02-13T13:26:02.239Z,99.90
2023-02-13T13:28:36.473Z,99.90
2023-02-13T13:31:03.807Z,99.90
2023-02-13T13:33:31.286Z,99.90
2023-02-13T13:36:05.553Z,99.90
2023-02-13T13:38:52.479Z,99.90
2023-02-13T13:41:35.267Z,99.90
2023-02-13T13:44:20.180Z,99.90
2023-02-13T13:47:04.355Z,99.90
2023-02-13T13:49:54.027Z,99.90
2023-02-13T13:52:20.917Z,99.90
2023-02-13T13:54:51.532Z,99.90
2023-02-13T13:57:20.014Z,99.90
2023-02-13T13:59:51.572Z,99.90
2023-02-13T14:02:18.302Z,99.90
2023-02-13T14:05:09.380Z,99.90
2023-02-13T14:07:43.400Z,99.90
2023-02-13T14:10:21.876Z,99.90
2023-02-13T14:12:55.838Z,99.90
2023-02-13T14:15:34.882Z,99.90
2023-02-13T14:18:11.705Z,99.90
2023-02-13T14:20:41.778Z,99.90
2023-02-13T14:23:37.828Z,98.70
2023-02-13T14:26:16.011Z,98.20
2023-02-13T14:28:49.074Z,97.40
2023-02-13T14:31:34.710Z,91.90
2023-02-13T14:34:07.204Z,94.10
2023-02-13T14:36:39.756Z,96.00
2023-02-13T14:39:27.181Z,86.10
2023-02-13T14:41:56.803Z,82.10
2023-02-13T14:44:43.597Z,81.80
2023-02-13T14:47:31.915Z,77.60
2023-02-13T14:50:00.158Z,71.50
2023-02-13T14:52:29.896Z,76.50
2023-02-13T14:55:05.793Z,79.70
2023-02-13T14:57:43.147Z,69.80
2023-02-13T15:00:39.254Z,76.80
2023-02-13T15:03:28.293Z,70.20
2023-02-13T15:06:01.629Z,73.10
2023-02-13T15:08:35.949Z,72.90
2023-02-13T15:13:35.927Z,69.10
2023-02-13T15:16:08.771Z,65.70
2023-02-13T15:18:38.392Z,72.90
2023-02-13T15:21:05.328Z,64.70
2023-02-13T15:23:33.960Z,61.40
2023-02-13T15:26:06.132Z,60.30
2023-02-13T15:28:34.109Z,60.00
2023-02-13T15:31:22.201Z,60.90
2023-02-13T15:33:50.573Z,54.70
2023-02-13T15:36:21.188Z,63.50
2023-02-13T15:38:48.077Z,67.20
2023-02-13T15:41:20.276Z,57.20
2023-02-13T15:43:49.969Z,62.70
2023-02-13T15:46:24.830Z,60.90
2023-02-13T15:48:56.472Z,58.80
2023-02-13T15:51:25.476Z,57.90
2023-02-13T15:53:55.825Z,53.70
2023-02-13T15:56:23.310Z,54.30
2023-02-13T15:58:50.946Z,55.60
2023-02-13T16:01:17.933Z,53.40
2023-02-13T16:03:49.610Z,56.90
2023-02-13T16:06:17.998Z,64.30
2023-02-13T16:08:52.000Z,63.20
2023-02-13T16:11:32.655Z,64.20
2023-02-13T16:14:21.621Z,62.20
2023-02-13T16:17:13.056Z,60.30
2023-02-13T16:19:39.651Z,62.30
2023-02-13T16:22:17.616Z,65.30
2023-02-13T16:24:56.174Z,64.60
2023-02-13T16:27:28.445Z,71.60
2023-02-13T16:30:01.132Z,67.00
2023-02-13T16:32:30.327Z,70.10
2023-02-13T16:34:57.525Z,65.40
2023-02-13T16:37:28.000Z,69.70
2023-02-13T16:39:54.738Z,69.40
2023-02-13T16:42:21.436Z,67.40
2023-02-13T16:44:48.378Z,69.10
2023-02-13T16:47:24.161Z,66.30
2023-02-13T16:49:57.050Z,66.30
2023-02-13T16:52:27.629Z,66.30
2023-02-13T16:54:59.904Z,64.90
2023-02-13T16:57:32.340Z,63.60
2023-02-13T17:00:19.146Z,63.50
2023-02-13T17:02:46.980Z,63.30
2023-02-13T17:05:32.080Z,63.30
2023-02-13T17:08:01.504Z,61.80
2023-02-13T17:10:33.901Z,62.90
2023-02-13T17:13:13.014Z,60.50
2023-02-13T17:15:44.873Z,60.60
2023-02-13T17:18:11.578Z,59.80
2023-02-13T17:20:50.376Z,61.40
2023-02-13T17:23:22.436Z,60.50
2023-02-13T17:25:59.568Z,61.40
2023-02-13T17:28:33.245Z,62.50
2023-02-13T17:31:01.379Z,60.90
2023-02-13T17:33:30.683Z,60.50
2023-02-13T17:35:58.926Z,65.60
2023-02-13T17:38:25.595Z,64.10
2023-02-13T17:40:52.298Z,67.20
2023-02-13T17:43:19.877Z,71.20
2023-02-13T17:45:47.309Z,68.80
2023-02-13T17:48:14.079Z,67.10
2023-02-13T17:50:41.252Z,66.40
2023-02-13T17:53:16.299Z,65.60
2023-02-13T17:55:43.179Z,65.70
2023-02-13T17:58:09.820Z,65.90
2023-02-13T18:00:36.521Z,67.40
2023-02-13T18:03:04.080Z,67.70
2023-02-13T18:05:33.096Z,66.70
2023-02-13T18:08:02.631Z,65.20
2023-02-13T18:10:31.476Z,63.40
2023-02-13T18:13:03.976Z,64.70
2023-02-13T18:15:36.172Z,66.20
2023-02-13T18:18:03.139Z,67.10
2023-02-13T18:20:29.954Z,64.30
2023-02-13T18:22:56.608Z,67.00
2023-02-13T18:25:23.701Z,63.60
2023-02-13T18:27:50.791Z,66.00
2023-02-13T18:30:19.328Z,65.40
2023-02-13T18:32:46.483Z,63.40
2023-02-13T18:35:13.192Z,64.70
2023-02-13T18:37:39.996Z,64.80
2023-02-13T18:40:08.075Z,64.20
2023-02-13T18:42:35.956Z,62.20
2023-02-13T18:45:03.305Z,63.80
2023-02-13T18:47:30.001Z,60.30
2023-02-13T18:49:56.738Z,62.20
2023-02-13T18:52:23.454Z,63.20
2023-02-13T18:54:50.181Z,63.50
2023-02-13T18:57:16.933Z,63.50
2023-02-13T18:59:43.609Z,63.50
2023-02-13T19:02:10.567Z,63.30
2023-02-13T19:04:38.218Z,63.30
2023-02-13T19:07:04.903Z,63.80
2023-02-13T19:09:32.028Z,62.10
2023-02-13T19:11:58.792Z,63.40
2023-02-13T19:14:26.712Z,62.50
2023-02-13T19:16:53.500Z,63.50
2023-02-13T19:19:20.135Z,63.70
2023-02-13T19:21:47.518Z,62.90
2023-02-13T19:24:15.566Z,64.80
2023-02-13T19:26:42.448Z,62.60
2023-02-13T19:29:09.123Z,64.90
2023-02-13T19:31:36.469Z,65.50
2023-02-13T19:34:05.757Z,64.50
2023-02-13T19:36:32.720Z,64.40
2023-02-13T19:39:03.331Z,66.90
2023-02-13T19:41:32.726Z,66.30
2023-02-13T19:44:00.901Z,65.00
2023-02-13T19:46:30.577Z,64.90
2023-02-13T19:48:57.886Z,65.50
2023-02-13T19:51:27.779Z,64.80
2023-02-13T19:53:58.593Z,63.80
2023-02-13T19:56:27.311Z,63.30
2023-02-13T19:58:54.105Z,62.60
2023-02-13T20:01:23.673Z,63.60
2023-02-13T20:03:50.892Z,64.30
2023-02-13T20:06:20.550Z,64.30
2023-02-13T20:08:47.637Z,64.00
2023-02-13T20:11:16.738Z,65.20
2023-02-13T20:13:43.812Z,64.90
2023-02-13T20:16:13.331Z,64.70
2023-02-13T20:18:41.026Z,65.10
2023-02-13T20:21:10.638Z,66.10
2023-02-13T20:23:37.552Z,65.60
2023-02-13T20:26:10.924Z,65.10
2023-02-13T20:28:38.349Z,64.70
2023-02-13T20:31:12.541Z,66.80
2023-02-13T20:33:40.342Z,65.50
2023-02-13T20:36:15.846Z,66.00
2023-02-13T20:38:43.136Z,65.00
2023-02-13T20:41:15.922Z,65.80
2023-02-13T20:43:42.917Z,65.60
2023-02-13T20:46:10.407Z,66.50
2023-02-13T20:48:41.440Z,68.70
2023-02-13T20:51:11.799Z,68.30
2023-02-13T20:53:39.199Z,67.80
2023-02-13T20:56:10.809Z,68.30
2023-02-13T20:58:38.385Z,67.20
2023-02-13T21:01:19.164Z,67.80
2023-02-13T21:03:48.326Z,68.50
2023-02-13T21:06:15.825Z,70.40
2023-02-13T21:08:43.735Z,71.80
2023-02-13T21:11:10.808Z,72.70
2023-02-13T21:13:40.279Z,70.30
2023-02-13T21:16:22.393Z,69.60
2023-02-13T21:18:53.723Z,68.50
2023-02-13T21:21:25.165Z,68.90
2023-02-13T21:23:56.394Z,68.60
2023-02-13T21:26:23.967Z,68.60
2023-02-13T21:28:52.064Z,67.80
2023-02-13T21:31:25.777Z,69.70
2023-02-13T21:33:53.022Z,69.20
2023-02-13T21:36:20.249Z,67.40
2023-02-13T21:38:47.036Z,69.70
2023-02-13T21:41:16.214Z,70.50
2023-02-13T21:43:46.730Z,69.90
2023-02-13T21:46:28.266Z,70.90
2023-02-13T21:48:59.986Z,68.20
2023-02-13T21:51:28.364Z,69.20
2023-02-13T21:53:55.233Z,69.30
2023-02-13T21:56:33.114Z,68.80
2023-02-13T21:58:59.823Z,68.90
2023-02-13T22:01:32.565Z,66.90
2023-02-13T22:04:01.428Z,66.20
2023-02-13T22:06:30.282Z,67.10
2023-02-13T22:09:02.084Z,65.10
2023-02-13T22:11:29.399Z,66.20
2023-02-13T22:13:58.633Z,66.10
2023-02-13T22:16:25.403Z,67.10
2023-02-13T22:18:52.116Z,65.10
2023-02-13T22:21:20.841Z,63.70
2023-02-13T22:23:48.170Z,63.60
2023-02-13T22:26:23.490Z,65.10
2023-02-13T22:28:50.934Z,63.10
2023-02-13T22:31:18.330Z,63.40
2023-02-13T22:33:49.839Z,62.70
2023-02-13T22:36:22.131Z,64.40
2023-02-13T22:38:50.053Z,64.80
2023-02-13T22:41:26.714Z,65.40
2023-02-13T22:43:53.734Z,64.80
2023-02-13T22:46:23.064Z,63.90
2023-02-13T22:48:52.301Z,63.10
2023-02-13T22:51:21.491Z,63.80
2023-02-13T22:53:50.989Z,63.40
2023-02-13T22:56:17.753Z,64.90
2023-02-13T22:58:44.376Z,64.20
2023-02-13T23:01:16.382Z,63.80
2023-02-13T23:03:43.329Z,64.30
2023-02-13T23:06:11.107Z,65.20
2023-02-13T23:08:38.604Z,64.60
2023-02-13T23:11:26.572Z,63.00
2023-02-13T23:13:53.293Z,64.40
2023-02-13T23:16:20.147Z,64.20
2023-02-13T23:18:57.249Z,64.00
2023-02-13T23:21:25.190Z,66.40
2023-02-13T23:23:51.943Z,63.20
2023-02-13T23:26:18.803Z,63.20
2023-02-13T23:28:45.604Z,64.70
2023-02-13T23:31:12.382Z,64.30
2023-02-13T23:33:39.137Z,64.30
2023-02-13T23:36:06.265Z,62.20
2023-02-13T23:38:32.927Z,64.90
2023-02-13T23:41:07.436Z,64.70
2023-02-13T23:43:34.133Z,62.40
2023-02-13T23:46:04.176Z,64.90
2023-02-13T23:48:31.364Z,66.50
2023-02-13T23:50:58.486Z,66.90
2023-02-13T23:53:25.617Z,67.80
2023-02-13T23:55:52.285Z,67.40
2023-02-13T23:58:18.957Z,67.20
